sensor_id;sensor_type;location;lat;lon;timestamp;P1;durP1;ratioP1;P2;durP2;ratioP2
51292;SDS011;37377;45.186;9.778;2023-07-13T00:04:38;6.43;;;1.67;;
51292;SDS011;37377;45.186;9.778;2023-07-13T00:18:55;7.82;;;2.08;;
51292;SDS011;37377;45.186;9.778;2023-07-13T00:32:34;8.13;;;1.90;;
51292;SDS011;37377;45.186;9.778;2023-07-13T00:35:00;6.00;;;3.70;;
51292;SDS011;37377;45.186;9.778;2023-07-13T00:37:27;5.82;;;2.10;;
51292;SDS011;37377;45.186;9.778;2023-07-13T00:39:55;10.10;;;2.45;;
51292;SDS011;37377;45.186;9.778;2023-07-13T00:42:22;3.30;;;1.90;;
51292;SDS011;37377;45.186;9.778;2023-07-13T00:48:21;5.90;;;2.20;;
51292;SDS011;37377;45.186;9.778;2023-07-13T00:50:53;3.63;;;2.00;;
51292;SDS011;37377;45.186;9.778;2023-07-13T00:53:21;7.25;;;2.20;;
51292;SDS011;37377;45.186;9.778;2023-07-13T00:56:12;4.30;;;2.00;;
51292;SDS011;37377;45.186;9.778;2023-07-13T00:58:40;6.45;;;2.10;;
51292;SDS011;37377;45.186;9.778;2023-07-13T01:01:09;7.78;;;2.22;;
51292;SDS011;37377;45.186;9.778;2023-07-13T01:03:43;3.05;;;2.00;;
51292;SDS011;37377;45.186;9.778;2023-07-13T01:06:10;9.05;;;2.17;;
51292;SDS011;37377;45.186;9.778;2023-07-13T01:08:38;4.85;;;2.15;;
51292;SDS011;37377;45.186;9.778;2023-07-13T01:11:08;10.68;;;2.30;;
51292;SDS011;37377;45.186;9.778;2023-07-13T01:13:35;6.63;;;2.45;;
51292;SDS011;37377;45.186;9.778;2023-07-13T01:16:04;4.60;;;2.17;;
51292;SDS011;37377;45.186;9.778;2023-07-13T01:18:32;5.53;;;2.30;;
51292;SDS011;37377;45.186;9.778;2023-07-13T01:21:03;8.32;;;2.22;;
51292;SDS011;37377;45.186;9.778;2023-07-13T01:23:30;3.47;;;2.40;;
51292;SDS011;37377;45.186;9.778;2023-07-13T01:25:58;8.85;;;2.30;;
51292;SDS011;37377;45.186;9.778;2023-07-13T01:28:26;6.10;;;2.67;;
51292;SDS011;37377;45.186;9.778;2023-07-13T01:31:02;3.92;;;2.08;;
51292;SDS011;37377;45.186;9.778;2023-07-13T01:33:35;6.47;;;2.00;;
51292;SDS011;37377;45.186;9.778;2023-07-13T01:36:42;10.45;;;2.75;;
51292;SDS011;37377;45.186;9.778;2023-07-13T01:39:13;5.70;;;2.78;;
51292;SDS011;37377;45.186;9.778;2023-07-13T01:41:42;7.15;;;2.45;;
51292;SDS011;37377;45.186;9.778;2023-07-13T01:44:08;4.57;;;2.67;;
51292;SDS011;37377;45.186;9.778;2023-07-13T01:46:35;7.45;;;2.50;;
51292;SDS011;37377;45.186;9.778;2023-07-13T01:49:02;3.85;;;2.42;;
51292;SDS011;37377;45.186;9.778;2023-07-13T01:51:29;13.35;;;2.97;;
51292;SDS011;37377;45.186;9.778;2023-07-13T01:53:56;12.30;;;2.70;;
51292;SDS011;37377;45.186;9.778;2023-07-13T01:56:23;4.85;;;2.65;;
51292;SDS011;37377;45.186;9.778;2023-07-13T01:58:51;8.93;;;2.90;;
51292;SDS011;37377;45.186;9.778;2023-07-13T02:01:18;10.95;;;3.22;;
51292;SDS011;37377;45.186;9.778;2023-07-13T02:03:46;5.13;;;3.20;;
51292;SDS011;37377;45.186;9.778;2023-07-13T02:07:08;6.30;;;3.05;;
51292;SDS011;37377;45.186;9.778;2023-07-13T02:09:35;8.10;;;3.20;;
51292;SDS011;37377;45.186;9.778;2023-07-13T02:12:02;9.35;;;2.70;;
51292;SDS011;37377;45.186;9.778;2023-07-13T02:14:32;5.20;;;3.10;;
51292;SDS011;37377;45.186;9.778;2023-07-13T02:16:59;9.63;;;3.10;;
51292;SDS011;37377;45.186;9.778;2023-07-13T02:19:28;11.27;;;3.55;;
51292;SDS011;37377;45.186;9.778;2023-07-13T02:21:56;10.73;;;3.28;;
51292;SDS011;37377;45.186;9.778;2023-07-13T02:24:23;10.27;;;3.30;;
51292;SDS011;37377;45.186;9.778;2023-07-13T02:26:55;15.20;;;3.22;;
51292;SDS011;37377;45.186;9.778;2023-07-13T02:29:24;8.93;;;3.33;;
51292;SDS011;37377;45.186;9.778;2023-07-13T02:32:15;8.60;;;3.30;;
51292;SDS011;37377;45.186;9.778;2023-07-13T02:35:01;7.78;;;3.30;;
51292;SDS011;37377;45.186;9.778;2023-07-13T02:37:45;13.43;;;4.03;;
51292;SDS011;37377;45.186;9.778;2023-07-13T02:41:07;7.68;;;3.60;;
51292;SDS011;37377;45.186;9.778;2023-07-13T02:54:36;10.68;;;5.10;;
51292;SDS011;37377;45.186;9.778;2023-07-13T02:58:26;10.10;;;4.85;;
51292;SDS011;37377;45.186;9.778;2023-07-13T03:21:19;13.07;;;7.00;;
51292;SDS011;37377;45.186;9.778;2023-07-13T03:24:20;11.00;;;6.50;;
51292;SDS011;37377;45.186;9.778;2023-07-13T03:37:14;13.75;;;7.50;;
51292;SDS011;37377;45.186;9.778;2023-07-13T03:55:51;11.43;;;7.00;;
51292;SDS011;37377;45.186;9.778;2023-07-13T04:05:05;16.60;;;8.40;;
51292;SDS011;37377;45.186;9.778;2023-07-13T04:07:32;17.23;;;7.88;;
51292;SDS011;37377;45.186;9.778;2023-07-13T04:10:20;15.93;;;8.25;;
51292;SDS011;37377;45.186;9.778;2023-07-13T04:14:02;48.35;;;10.57;;
51292;SDS011;37377;45.186;9.778;2023-07-13T04:16:30;17.50;;;9.25;;
51292;SDS011;37377;45.186;9.778;2023-07-13T04:19:20;14.73;;;8.32;;
51292;SDS011;37377;45.186;9.778;2023-07-13T04:21:48;16.17;;;9.60;;
51292;SDS011;37377;45.186;9.778;2023-07-13T04:24:15;14.57;;;9.65;;
51292;SDS011;37377;45.186;9.778;2023-07-13T04:26:53;20.42;;;8.60;;
51292;SDS011;37377;45.186;9.778;2023-07-13T04:29:19;20.23;;;8.10;;
51292;SDS011;37377;45.186;9.778;2023-07-13T04:32:19;20.65;;;8.05;;
51292;SDS011;37377;45.186;9.778;2023-07-13T04:34:46;13.05;;;7.40;;
51292;SDS011;37377;45.186;9.778;2023-07-13T04:37:13;17.88;;;6.95;;
51292;SDS011;37377;45.186;9.778;2023-07-13T04:39:40;19.55;;;7.25;;
51292;SDS011;37377;45.186;9.778;2023-07-13T04:42:07;12.30;;;7.05;;
51292;SDS011;37377;45.186;9.778;2023-07-13T04:44:34;12.07;;;6.78;;
51292;SDS011;37377;45.186;9.778;2023-07-13T04:47:01;14.20;;;6.40;;
51292;SDS011;37377;45.186;9.778;2023-07-13T04:49:28;18.67;;;6.15;;
51292;SDS011;37377;45.186;9.778;2023-07-13T04:51:55;8.57;;;5.82;;
51292;SDS011;37377;45.186;9.778;2023-07-13T04:54:21;17.80;;;5.72;;
51292;SDS011;37377;45.186;9.778;2023-07-13T04:56:48;17.75;;;6.45;;
51292;SDS011;37377;45.186;9.778;2023-07-13T04:59:15;11.00;;;6.30;;
51292;SDS011;37377;45.186;9.778;2023-07-13T05:01:42;8.18;;;6.15;;
51292;SDS011;37377;45.186;9.778;2023-07-13T05:04:09;16.58;;;8.85;;
51292;SDS011;37377;45.186;9.778;2023-07-13T05:06:36;18.60;;;7.35;;
51292;SDS011;37377;45.186;9.778;2023-07-13T05:09:03;12.68;;;6.85;;
51292;SDS011;37377;45.186;9.778;2023-07-13T05:11:29;16.45;;;7.13;;
51292;SDS011;37377;45.186;9.778;2023-07-13T05:13:56;32.40;;;8.25;;
51292;SDS011;37377;45.186;9.778;2023-07-13T05:16:23;16.83;;;6.97;;
51292;SDS011;37377;45.186;9.778;2023-07-13T05:18:50;11.57;;;7.40;;
51292;SDS011;37377;45.186;9.778;2023-07-13T05:21:17;15.23;;;7.25;;
51292;SDS011;37377;45.186;9.778;2023-07-13T05:23:46;11.50;;;7.00;;
51292;SDS011;37377;45.186;9.778;2023-07-13T05:26:13;17.70;;;8.13;;
51292;SDS011;37377;45.186;9.778;2023-07-13T05:28:40;21.40;;;7.70;;
51292;SDS011;37377;45.186;9.778;2023-07-13T05:31:07;13.30;;;7.68;;
51292;SDS011;37377;45.186;9.778;2023-07-13T05:33:34;14.13;;;7.70;;
51292;SDS011;37377;45.186;9.778;2023-07-13T05:36:13;20.67;;;8.38;;
51292;SDS011;37377;45.186;9.778;2023-07-13T05:39:19;14.88;;;8.50;;
51292;SDS011;37377;45.186;9.778;2023-07-13T05:41:46;15.77;;;9.27;;
51292;SDS011;37377;45.186;9.778;2023-07-13T05:44:13;16.13;;;8.88;;
51292;SDS011;37377;45.186;9.778;2023-07-13T05:46:40;22.45;;;8.77;;
51292;SDS011;37377;45.186;9.778;2023-07-13T05:49:07;11.15;;;8.85;;
51292;SDS011;37377;45.186;9.778;2023-07-13T05:51:33;15.80;;;9.23;;
51292;SDS011;37377;45.186;9.778;2023-07-13T05:54:00;17.55;;;9.02;;
51292;SDS011;37377;45.186;9.778;2023-07-13T05:56:27;28.50;;;10.27;;
51292;SDS011;37377;45.186;9.778;2023-07-13T05:58:54;20.52;;;9.80;;
51292;SDS011;37377;45.186;9.778;2023-07-13T06:01:21;24.75;;;9.60;;
51292;SDS011;37377;45.186;9.778;2023-07-13T06:03:49;17.95;;;9.68;;
51292;SDS011;37377;45.186;9.778;2023-07-13T06:06:16;22.23;;;9.38;;
51292;SDS011;37377;45.186;9.778;2023-07-13T06:08:43;20.45;;;9.27;;
51292;SDS011;37377;45.186;9.778;2023-07-13T06:11:12;31.58;;;9.73;;
51292;SDS011;37377;45.186;9.778;2023-07-13T06:13:40;22.75;;;9.90;;
51292;SDS011;37377;45.186;9.778;2023-07-13T06:16:07;30.80;;;10.18;;
51292;SDS011;37377;45.186;9.778;2023-07-13T06:18:35;25.05;;;10.30;;
51292;SDS011;37377;45.186;9.778;2023-07-13T06:25:10;21.95;;;9.40;;
51292;SDS011;37377;45.186;9.778;2023-07-13T06:28:07;22.35;;;9.20;;
51292;SDS011;37377;45.186;9.778;2023-07-13T06:30:43;14.95;;;8.32;;
51292;SDS011;37377;45.186;9.778;2023-07-13T06:34:23;13.60;;;8.57;;
51292;SDS011;37377;45.186;9.778;2023-07-13T06:36:54;13.13;;;8.93;;
51292;SDS011;37377;45.186;9.778;2023-07-13T06:39:21;16.08;;;7.75;;
51292;SDS011;37377;45.186;9.778;2023-07-13T06:42:18;20.13;;;6.93;;
51292;SDS011;37377;45.186;9.778;2023-07-13T06:44:45;15.10;;;7.50;;
51292;SDS011;37377;45.186;9.778;2023-07-13T06:47:12;12.52;;;6.65;;
51292;SDS011;37377;45.186;9.778;2023-07-13T06:49:38;15.45;;;7.93;;
51292;SDS011;37377;45.186;9.778;2023-07-13T06:52:05;12.38;;;7.65;;
51292;SDS011;37377;45.186;9.778;2023-07-13T06:54:32;27.27;;;7.32;;
51292;SDS011;37377;45.186;9.778;2023-07-13T06:56:59;18.10;;;8.00;;
51292;SDS011;37377;45.186;9.778;2023-07-13T06:59:26;12.90;;;7.60;;
51292;SDS011;37377;45.186;9.778;2023-07-13T07:01:53;17.98;;;6.88;;
51292;SDS011;37377;45.186;9.778;2023-07-13T07:04:19;18.73;;;7.15;;
51292;SDS011;37377;45.186;9.778;2023-07-13T07:06:46;16.42;;;6.80;;
51292;SDS011;37377;45.186;9.778;2023-07-13T07:09:13;19.98;;;6.55;;
51292;SDS011;37377;45.186;9.778;2023-07-13T07:11:41;11.43;;;5.88;;
51292;SDS011;37377;45.186;9.778;2023-07-13T07:14:28;13.25;;;5.90;;
51292;SDS011;37377;45.186;9.778;2023-07-13T07:16:54;14.38;;;5.80;;
51292;SDS011;37377;45.186;9.778;2023-07-13T07:19:21;14.20;;;6.00;;
51292;SDS011;37377;45.186;9.778;2023-07-13T07:21:48;13.65;;;5.32;;
51292;SDS011;37377;45.186;9.778;2023-07-13T07:24:15;11.57;;;5.68;;
51292;SDS011;37377;45.186;9.778;2023-07-13T07:26:42;9.68;;;5.00;;
51292;SDS011;37377;45.186;9.778;2023-07-13T07:29:12;7.68;;;4.75;;
51292;SDS011;37377;45.186;9.778;2023-07-13T07:31:42;15.38;;;5.03;;
51292;SDS011;37377;45.186;9.778;2023-07-13T07:34:12;20.55;;;6.38;;
51292;SDS011;37377;45.186;9.778;2023-07-13T07:36:39;14.90;;;5.75;;
51292;SDS011;37377;45.186;9.778;2023-07-13T07:39:09;17.23;;;6.28;;
51292;SDS011;37377;45.186;9.778;2023-07-13T07:41:36;12.98;;;6.85;;
51292;SDS011;37377;45.186;9.778;2023-07-13T07:44:05;12.30;;;6.18;;
51292;SDS011;37377;45.186;9.778;2023-07-13T07:46:34;12.90;;;5.60;;
51292;SDS011;37377;45.186;9.778;2023-07-13T07:49:01;9.95;;;5.40;;
51292;SDS011;37377;45.186;9.778;2023-07-13T07:51:27;17.20;;;6.32;;
51292;SDS011;37377;45.186;9.778;2023-07-13T07:53:54;15.57;;;5.88;;
51292;SDS011;37377;45.186;9.778;2023-07-13T07:56:21;12.25;;;6.70;;
51292;SDS011;37377;45.186;9.778;2023-07-13T07:58:51;13.27;;;6.38;;
51292;SDS011;37377;45.186;9.778;2023-07-13T08:01:20;13.48;;;5.85;;
51292;SDS011;37377;45.186;9.778;2023-07-13T08:03:50;16.17;;;5.80;;
51292;SDS011;37377;45.186;9.778;2023-07-13T08:06:20;9.15;;;5.43;;
51292;SDS011;37377;45.186;9.778;2023-07-13T08:08:51;12.02;;;6.40;;
51292;SDS011;37377;45.186;9.778;2023-07-13T08:11:18;9.57;;;5.30;;
51292;SDS011;37377;45.186;9.778;2023-07-13T08:13:47;9.82;;;5.85;;
51292;SDS011;37377;45.186;9.778;2023-07-13T08:16:16;12.75;;;6.53;;
51292;SDS011;37377;45.186;9.778;2023-07-13T08:18:43;13.93;;;5.70;;
51292;SDS011;37377;45.186;9.778;2023-07-13T08:21:10;13.45;;;5.68;;
51292;SDS011;37377;45.186;9.778;2023-07-13T08:23:37;24.13;;;6.28;;
51292;SDS011;37377;45.186;9.778;2023-07-13T08:26:05;16.17;;;7.25;;
51292;SDS011;37377;45.186;9.778;2023-07-13T08:28:32;13.02;;;6.57;;
51292;SDS011;37377;45.186;9.778;2023-07-13T08:31:06;15.73;;;6.55;;
51292;SDS011;37377;45.186;9.778;2023-07-13T08:33:34;15.27;;;7.18;;
51292;SDS011;37377;45.186;9.778;2023-07-13T08:36:02;11.23;;;6.72;;
51292;SDS011;37377;45.186;9.778;2023-07-13T08:38:28;7.97;;;6.00;;
51292;SDS011;37377;45.186;9.778;2023-07-13T08:40:56;11.20;;;6.50;;
51292;SDS011;37377;45.186;9.778;2023-07-13T08:43:34;11.07;;;5.80;;
51292;SDS011;37377;45.186;9.778;2023-07-13T08:48:35;13.88;;;5.90;;
51292;SDS011;37377;45.186;9.778;2023-07-13T08:53:49;17.92;;;5.68;;
51292;SDS011;37377;45.186;9.778;2023-07-13T08:56:17;19.95;;;6.38;;
51292;SDS011;37377;45.186;9.778;2023-07-13T08:58:46;17.92;;;5.60;;
51292;SDS011;37377;45.186;9.778;2023-07-13T09:01:28;23.98;;;5.57;;
51292;SDS011;37377;45.186;9.778;2023-07-13T09:04:08;12.90;;;5.20;;
51292;SDS011;37377;45.186;9.778;2023-07-13T09:06:46;11.00;;;5.13;;
51292;SDS011;37377;45.186;9.778;2023-07-13T09:09:39;27.40;;;5.82;;
51292;SDS011;37377;45.186;9.778;2023-07-13T09:12:07;18.50;;;5.28;;
51292;SDS011;37377;45.186;9.778;2023-07-13T09:14:42;27.98;;;5.90;;
51292;SDS011;37377;45.186;9.778;2023-07-13T09:17:12;45.63;;;6.25;;
51292;SDS011;37377;45.186;9.778;2023-07-13T09:19:39;44.03;;;6.20;;
51292;SDS011;37377;45.186;9.778;2023-07-13T09:22:09;15.35;;;5.50;;
51292;SDS011;37377;45.186;9.778;2023-07-13T09:27:38;19.10;;;5.70;;
51292;SDS011;37377;45.186;9.778;2023-07-13T09:29:58;17.48;;;5.55;;
51292;SDS011;37377;45.186;9.778;2023-07-13T09:32:29;18.73;;;4.63;;
51292;SDS011;37377;45.186;9.778;2023-07-13T09:34:55;9.57;;;4.90;;
51292;SDS011;37377;45.186;9.778;2023-07-13T09:37:23;4.40;;;3.83;;
51292;SDS011;37377;45.186;9.778;2023-07-13T09:39:53;13.98;;;4.72;;
51292;SDS011;37377;45.186;9.778;2023-07-13T09:42:21;12.38;;;4.65;;
51292;SDS011;37377;45.186;9.778;2023-07-13T09:47:17;16.33;;;4.85;;
51292;SDS011;37377;45.186;9.778;2023-07-13T09:49:44;17.85;;;4.40;;
51292;SDS011;37377;45.186;9.778;2023-07-13T09:52:12;12.90;;;3.45;;
51292;SDS011;37377;45.186;9.778;2023-07-13T09:54:38;23.92;;;4.82;;
51292;SDS011;37377;45.186;9.778;2023-07-13T09:57:13;7.88;;;3.75;;
51292;SDS011;37377;45.186;9.778;2023-07-13T09:59:43;16.02;;;3.80;;
51292;SDS011;37377;45.186;9.778;2023-07-13T10:02:29;10.05;;;4.00;;
51292;SDS011;37377;45.186;9.778;2023-07-13T10:07:24;8.63;;;4.22;;
51292;SDS011;37377;45.186;9.778;2023-07-13T10:09:56;14.15;;;4.25;;
51292;SDS011;37377;45.186;9.778;2023-07-13T10:12:24;6.32;;;3.55;;
51292;SDS011;37377;45.186;9.778;2023-07-13T10:14:56;7.82;;;4.13;;
51292;SDS011;37377;45.186;9.778;2023-07-13T10:17:43;6.97;;;3.72;;
51292;SDS011;37377;45.186;9.778;2023-07-13T10:20:10;11.68;;;4.22;;
51292;SDS011;37377;45.186;9.778;2023-07-13T10:22:50;11.18;;;3.80;;
51292;SDS011;37377;45.186;9.778;2023-07-13T10:25:21;13.90;;;4.32;;
51292;SDS011;37377;45.186;9.778;2023-07-13T10:27:52;9.13;;;4.10;;
51292;SDS011;37377;45.186;9.778;2023-07-13T10:30:21;5.10;;;4.43;;
51292;SDS011;37377;45.186;9.778;2023-07-13T10:32:52;13.35;;;4.85;;
51292;SDS011;37377;45.186;9.778;2023-07-13T10:35:19;10.13;;;4.90;;
51292;SDS011;37377;45.186;9.778;2023-07-13T10:37:55;13.27;;;5.47;;
51292;SDS011;37377;45.186;9.778;2023-07-13T10:40:27;10.07;;;4.95;;
51292;SDS011;37377;45.186;9.778;2023-07-13T10:42:54;6.95;;;5.57;;
51292;SDS011;37377;45.186;9.778;2023-07-13T10:45:24;10.30;;;4.75;;
51292;SDS011;37377;45.186;9.778;2023-07-13T10:47:51;10.10;;;4.90;;
51292;SDS011;37377;45.186;9.778;2023-07-13T10:50:23;10.50;;;5.35;;
51292;SDS011;37377;45.186;9.778;2023-07-13T10:52:52;12.70;;;5.60;;
51292;SDS011;37377;45.186;9.778;2023-07-13T11:03:25;11.30;;;4.20;;
51292;SDS011;37377;45.186;9.778;2023-07-13T11:06:04;12.35;;;3.78;;
51292;SDS011;37377;45.186;9.778;2023-07-13T11:08:34;9.25;;;3.78;;
51292;SDS011;37377;45.186;9.778;2023-07-13T11:18:44;12.35;;;5.22;;
51292;SDS011;37377;45.186;9.778;2023-07-13T11:21:12;11.45;;;4.95;;
51292;SDS011;37377;45.186;9.778;2023-07-13T11:26:40;27.48;;;5.80;;
51292;SDS011;37377;45.186;9.778;2023-07-13T11:29:08;13.65;;;5.93;;
51292;SDS011;37377;45.186;9.778;2023-07-13T11:31:35;10.00;;;5.53;;
51292;SDS011;37377;45.186;9.778;2023-07-13T11:34:06;15.60;;;5.38;;
51292;SDS011;37377;45.186;9.778;2023-07-13T11:36:37;16.55;;;5.13;;
51292;SDS011;37377;45.186;9.778;2023-07-13T11:39:18;12.90;;;5.88;;
51292;SDS011;37377;45.186;9.778;2023-07-13T11:41:53;7.85;;;4.95;;
51292;SDS011;37377;45.186;9.778;2023-07-13T11:44:23;10.23;;;4.53;;
51292;SDS011;37377;45.186;9.778;2023-07-13T11:46:52;12.45;;;4.05;;
51292;SDS011;37377;45.186;9.778;2023-07-13T11:49:24;11.43;;;3.85;;
51292;SDS011;37377;45.186;9.778;2023-07-13T11:51:53;8.97;;;3.70;;
51292;SDS011;37377;45.186;9.778;2023-07-13T11:56:50;12.10;;;3.72;;
51292;SDS011;37377;45.186;9.778;2023-07-13T11:59:17;10.07;;;3.78;;
51292;SDS011;37377;45.186;9.778;2023-07-13T12:01:49;8.63;;;3.10;;
51292;SDS011;37377;45.186;9.778;2023-07-13T12:04:20;14.88;;;3.00;;
51292;SDS011;37377;45.186;9.778;2023-07-13T12:06:54;8.82;;;2.60;;
51292;SDS011;37377;45.186;9.778;2023-07-13T12:09:21;12.85;;;3.72;;
51292;SDS011;37377;45.186;9.778;2023-07-13T12:11:51;12.43;;;3.60;;
51292;SDS011;37377;45.186;9.778;2023-07-13T12:14:18;3.33;;;1.90;;
51292;SDS011;37377;45.186;9.778;2023-07-13T12:16:46;4.55;;;2.15;;
51292;SDS011;37377;45.186;9.778;2023-07-13T12:19:21;3.65;;;2.15;;
51292;SDS011;37377;45.186;9.778;2023-07-13T12:21:48;7.72;;;2.45;;
51292;SDS011;37377;45.186;9.778;2023-07-13T12:24:16;5.90;;;1.70;;
51292;SDS011;37377;45.186;9.778;2023-07-13T12:26:43;6.72;;;1.70;;
51292;SDS011;37377;45.186;9.778;2023-07-13T12:29:12;4.40;;;2.20;;
51292;SDS011;37377;45.186;9.778;2023-07-13T12:31:42;7.03;;;3.55;;
51292;SDS011;37377;45.186;9.778;2023-07-13T12:34:11;6.55;;;2.78;;
51292;SDS011;37377;45.186;9.778;2023-07-13T12:36:40;7.85;;;2.05;;
51292;SDS011;37377;45.186;9.778;2023-07-13T12:39:16;11.13;;;5.55;;
51292;SDS011;37377;45.186;9.778;2023-07-13T12:41:43;7.63;;;4.53;;
51292;SDS011;37377;45.186;9.778;2023-07-13T12:44:12;12.20;;;4.80;;
51292;SDS011;37377;45.186;9.778;2023-07-13T12:46:50;12.98;;;5.68;;
51292;SDS011;37377;45.186;9.778;2023-07-13T12:49:21;15.30;;;3.85;;
51292;SDS011;37377;45.186;9.778;2023-07-13T12:51:56;11.98;;;5.88;;
51292;SDS011;37377;45.186;9.778;2023-07-13T12:54:23;12.52;;;7.32;;
51292;SDS011;37377;45.186;9.778;2023-07-13T12:56:50;8.60;;;6.65;;
51292;SDS011;37377;45.186;9.778;2023-07-13T12:59:20;11.30;;;6.70;;
51292;SDS011;37377;45.186;9.778;2023-07-13T13:01:48;14.15;;;6.40;;
51292;SDS011;37377;45.186;9.778;2023-07-13T13:04:16;8.65;;;6.18;;
51292;SDS011;37377;45.186;9.778;2023-07-13T13:06:43;10.38;;;6.30;;
51292;SDS011;37377;45.186;9.778;2023-07-13T13:09:14;15.98;;;7.07;;
51292;SDS011;37377;45.186;9.778;2023-07-13T13:11:41;13.10;;;6.70;;
51292;SDS011;37377;45.186;9.778;2023-07-13T13:14:08;11.23;;;6.15;;
51292;SDS011;37377;45.186;9.778;2023-07-13T13:16:37;11.52;;;6.38;;
51292;SDS011;37377;45.186;9.778;2023-07-13T13:19:27;11.32;;;6.50;;
51292;SDS011;37377;45.186;9.778;2023-07-13T13:21:53;14.05;;;6.45;;
51292;SDS011;37377;45.186;9.778;2023-07-13T13:24:22;20.27;;;6.72;;
51292;SDS011;37377;45.186;9.778;2023-07-13T13:26:50;14.05;;;5.85;;
51292;SDS011;37377;45.186;9.778;2023-07-13T13:29:18;21.50;;;7.10;;
51292;SDS011;37377;45.186;9.778;2023-07-13T13:31:45;15.77;;;5.07;;
51292;SDS011;37377;45.186;9.778;2023-07-13T13:34:13;14.90;;;5.18;;
51292;SDS011;37377;45.186;9.778;2023-07-13T13:36:41;11.13;;;4.20;;
51292;SDS011;37377;45.186;9.778;2023-07-13T13:39:50;10.02;;;4.80;;
51292;SDS011;37377;45.186;9.778;2023-07-13T13:41:57;12.60;;;3.72;;
51292;SDS011;37377;45.186;9.778;2023-07-13T13:44:24;13.45;;;2.97;;
51292;SDS011;37377;45.186;9.778;2023-07-13T13:46:51;7.10;;;2.45;;
51292;SDS011;37377;45.186;9.778;2023-07-13T13:49:23;12.68;;;2.47;;
51292;SDS011;37377;45.186;9.778;2023-07-13T13:51:50;7.70;;;2.00;;
51292;SDS011;37377;45.186;9.778;2023-07-13T13:54:18;12.50;;;2.00;;
51292;SDS011;37377;45.186;9.778;2023-07-13T13:56:48;7.35;;;2.30;;
51292;SDS011;37377;45.186;9.778;2023-07-13T13:59:16;7.25;;;3.20;;
51292;SDS011;37377;45.186;9.778;2023-07-13T14:01:43;9.13;;;2.35;;
51292;SDS011;37377;45.186;9.778;2023-07-13T14:04:17;10.93;;;2.35;;
51292;SDS011;37377;45.186;9.778;2023-07-13T14:06:44;12.32;;;2.30;;
51292;SDS011;37377;45.186;9.778;2023-07-13T14:09:12;7.97;;;2.67;;
51292;SDS011;37377;45.186;9.778;2023-07-13T14:11:39;4.18;;;1.88;;
51292;SDS011;37377;45.186;9.778;2023-07-13T14:14:09;13.80;;;3.13;;
51292;SDS011;37377;45.186;9.778;2023-07-13T14:16:38;8.50;;;2.30;;
51292;SDS011;37377;45.186;9.778;2023-07-13T14:19:05;9.85;;;2.97;;
51292;SDS011;37377;45.186;9.778;2023-07-13T14:21:31;4.72;;;2.17;;
51292;SDS011;37377;45.186;9.778;2023-07-13T14:23:58;7.45;;;2.90;;
51292;SDS011;37377;45.186;9.778;2023-07-13T14:26:25;11.85;;;2.97;;
51292;SDS011;37377;45.186;9.778;2023-07-13T14:28:56;10.52;;;2.53;;
51292;SDS011;37377;45.186;9.778;2023-07-13T14:31:25;5.00;;;2.25;;
51292;SDS011;37377;45.186;9.778;2023-07-13T14:33:56;6.15;;;2.17;;
51292;SDS011;37377;45.186;9.778;2023-07-13T14:36:29;9.98;;;2.20;;
51292;SDS011;37377;45.186;9.778;2023-07-13T14:38:57;5.63;;;2.30;;
51292;SDS011;37377;45.186;9.778;2023-07-13T14:41:25;10.52;;;2.67;;
51292;SDS011;37377;45.186;9.778;2023-07-13T14:43:52;9.90;;;2.42;;
51292;SDS011;37377;45.186;9.778;2023-07-13T14:46:24;13.60;;;3.35;;
51292;SDS011;37377;45.186;9.778;2023-07-13T14:48:54;14.35;;;2.50;;
51292;SDS011;37377;45.186;9.778;2023-07-13T14:51:23;10.45;;;3.00;;
51292;SDS011;37377;45.186;9.778;2023-07-13T14:53:49;16.00;;;3.10;;
51292;SDS011;37377;45.186;9.778;2023-07-13T14:56:17;16.17;;;3.45;;
51292;SDS011;37377;45.186;9.778;2023-07-13T14:58:44;5.72;;;2.55;;
51292;SDS011;37377;45.186;9.778;2023-07-13T15:01:12;10.10;;;2.75;;
51292;SDS011;37377;45.186;9.778;2023-07-13T15:03:44;8.32;;;2.72;;
51292;SDS011;37377;45.186;9.778;2023-07-13T15:06:12;10.52;;;3.78;;
51292;SDS011;37377;45.186;9.778;2023-07-13T15:08:40;11.13;;;3.20;;
51292;SDS011;37377;45.186;9.778;2023-07-13T15:11:09;15.05;;;2.88;;
51292;SDS011;37377;45.186;9.778;2023-07-13T15:13:39;12.30;;;3.30;;
51292;SDS011;37377;45.186;9.778;2023-07-13T15:16:11;11.13;;;3.97;;
51292;SDS011;37377;45.186;9.778;2023-07-13T15:18:40;17.75;;;5.13;;
51292;SDS011;37377;45.186;9.778;2023-07-13T15:21:08;20.58;;;3.47;;
51292;SDS011;37377;45.186;9.778;2023-07-13T15:23:36;16.38;;;3.65;;
51292;SDS011;37377;45.186;9.778;2023-07-13T15:26:02;14.00;;;3.70;;
51292;SDS011;37377;45.186;9.778;2023-07-13T15:28:29;11.85;;;3.60;;
51292;SDS011;37377;45.186;9.778;2023-07-13T15:30:56;17.00;;;3.50;;
51292;SDS011;37377;45.186;9.778;2023-07-13T15:33:27;22.25;;;4.05;;
51292;SDS011;37377;45.186;9.778;2023-07-13T15:35:54;13.18;;;4.03;;
51292;SDS011;37377;45.186;9.778;2023-07-13T15:38:23;20.00;;;5.30;;
51292;SDS011;37377;45.186;9.778;2023-07-13T15:40:50;12.98;;;3.33;;
51292;SDS011;37377;45.186;9.778;2023-07-13T15:43:19;14.38;;;3.58;;
51292;SDS011;37377;45.186;9.778;2023-07-13T15:45:46;11.27;;;2.95;;
51292;SDS011;37377;45.186;9.778;2023-07-13T15:48:17;21.40;;;3.83;;
51292;SDS011;37377;45.186;9.778;2023-07-13T15:50:45;9.70;;;3.92;;
51292;SDS011;37377;45.186;9.778;2023-07-13T15:53:15;13.65;;;3.90;;
51292;SDS011;37377;45.186;9.778;2023-07-13T15:55:43;15.80;;;4.57;;
51292;SDS011;37377;45.186;9.778;2023-07-13T15:58:11;12.55;;;4.53;;
51292;SDS011;37377;45.186;9.778;2023-07-13T16:00:38;14.05;;;4.20;;
51292;SDS011;37377;45.186;9.778;2023-07-13T16:03:08;13.40;;;4.20;;
51292;SDS011;37377;45.186;9.778;2023-07-13T16:05:35;13.38;;;4.00;;
51292;SDS011;37377;45.186;9.778;2023-07-13T16:08:04;11.60;;;3.75;;
51292;SDS011;37377;45.186;9.778;2023-07-13T16:12:59;11.63;;;4.47;;
51292;SDS011;37377;45.186;9.778;2023-07-13T16:15:26;9.73;;;4.45;;
51292;SDS011;37377;45.186;9.778;2023-07-13T16:17:53;12.93;;;5.70;;
51292;SDS011;37377;45.186;9.778;2023-07-13T16:20:21;11.77;;;4.85;;
51292;SDS011;37377;45.186;9.778;2023-07-13T16:22:50;19.55;;;5.95;;
51292;SDS011;37377;45.186;9.778;2023-07-13T16:25:19;15.93;;;4.70;;
51292;SDS011;37377;45.186;9.778;2023-07-13T16:27:46;18.00;;;3.90;;
51292;SDS011;37377;45.186;9.778;2023-07-13T16:30:15;23.67;;;4.80;;
51292;SDS011;37377;45.186;9.778;2023-07-13T16:32:42;23.55;;;5.60;;
51292;SDS011;37377;45.186;9.778;2023-07-13T16:35:09;16.27;;;4.65;;
51292;SDS011;37377;45.186;9.778;2023-07-13T16:37:35;9.40;;;4.45;;
51292;SDS011;37377;45.186;9.778;2023-07-13T16:40:28;12.32;;;4.90;;
51292;SDS011;37377;45.186;9.778;2023-07-13T16:42:55;20.10;;;5.05;;
51292;SDS011;37377;45.186;9.778;2023-07-13T16:45:24;16.92;;;4.80;;
51292;SDS011;37377;45.186;9.778;2023-07-13T16:47:52;15.93;;;5.53;;
51292;SDS011;37377;45.186;9.778;2023-07-13T16:50:24;10.43;;;4.53;;
51292;SDS011;37377;45.186;9.778;2023-07-13T16:52:52;17.40;;;4.80;;
51292;SDS011;37377;45.186;9.778;2023-07-13T16:55:19;11.75;;;4.10;;
51292;SDS011;37377;45.186;9.778;2023-07-13T16:57:54;14.48;;;5.05;;
51292;SDS011;37377;45.186;9.778;2023-07-13T17:00:23;19.02;;;5.85;;
51292;SDS011;37377;45.186;9.778;2023-07-13T17:02:55;13.25;;;5.57;;
51292;SDS011;37377;45.186;9.778;2023-07-13T17:05:29;14.50;;;5.55;;
51292;SDS011;37377;45.186;9.778;2023-07-13T17:07:56;16.23;;;5.63;;
51292;SDS011;37377;45.186;9.778;2023-07-13T17:10:25;18.17;;;4.82;;
51292;SDS011;37377;45.186;9.778;2023-07-13T17:12:53;22.90;;;5.18;;
51292;SDS011;37377;45.186;9.778;2023-07-13T17:15:21;15.55;;;4.93;;